sensor_id;sensor_type;location;lat;lon;timestamp;temperature;humidity
67275;DHT22;55463;52.324;5.122;2023-08-20T00:00:09;17.21;89.74
67275;DHT22;55463;52.324;5.122;2023-08-20T00:02:36;17.18;89.72
67275;DHT22;55463;52.324;5.122;2023-08-20T00:05:02;17.12;90.29
67275;DHT22;55463;52.324;5.122;2023-08-20T00:07:31;17.11;90.84
67275;DHT22;55463;52.324;5.122;2023-08-20T00:09:58;17.10;90.61
67275;DHT22;55463;52.324;5.122;2023-08-20T00:12:23;17.08;90.54
67275;DHT22;55463;52.324;5.122;2023-08-20T00:14:58;17.07;90.53
67275;DHT22;55463;52.324;5.122;2023-08-20T00:17:29;17.07;91.31
67275;DHT22;55463;52.324;5.122;2023-08-20T00:19:55;17.10;92.98
67275;DHT22;55463;52.324;5.122;2023-08-20T00:22:22;17.12;91.91
67275;DHT22;55463;52.324;5.122;2023-08-20T00:24:49;17.12;91.87
67275;DHT22;55463;52.324;5.122;2023-08-20T00:27:15;17.12;91.65
67275;DHT22;55463;52.324;5.122;2023-08-20T00:29:40;17.14;91.51
67275;DHT22;55463;52.324;5.122;2023-08-20T00:32:06;17.18;92.53
67275;DHT22;55463;52.324;5.122;2023-08-20T00:34:31;17.22;93.33
67275;DHT22;55463;52.324;5.122;2023-08-20T00:36:57;17.27;92.61
67275;DHT22;55463;52.324;5.122;2023-08-20T00:39:22;17.28;92.78
67275;DHT22;55463;52.324;5.122;2023-08-20T00:41:47;17.29;93.15
67275;DHT22;55463;52.324;5.122;2023-08-20T00:44:13;17.34;92.68
67275;DHT22;55463;52.324;5.122;2023-08-20T00:46:39;17.31;92.44
67275;DHT22;55463;52.324;5.122;2023-08-20T00:49:04;17.32;92.75
67275;DHT22;55463;52.324;5.122;2023-08-20T00:51:32;17.31;92.50
67275;DHT22;55463;52.324;5.122;2023-08-20T00:53:59;17.31;92.52
67275;DHT22;55463;52.324;5.122;2023-08-20T00:56:25;17.29;93.22
67275;DHT22;55463;52.324;5.122;2023-08-20T00:58:53;17.28;93.28
67275;DHT22;55463;52.324;5.122;2023-08-20T01:01:20;17.31;93.40
67275;DHT22;55463;52.324;5.122;2023-08-20T01:03:45;17.32;92.80
67275;DHT22;55463;52.324;5.122;2023-08-20T01:12:16;17.32;92.66
67275;DHT22;55463;52.324;5.122;2023-08-20T01:14:42;17.35;92.88
67275;DHT22;55463;52.324;5.122;2023-08-20T01:17:07;17.31;92.68
67275;DHT22;55463;52.324;5.122;2023-08-20T01:19:36;17.27;92.73
67275;DHT22;55463;52.324;5.122;2023-08-20T01:27:43;17.22;93.50
67275;DHT22;55463;52.324;5.122;2023-08-20T01:30:12;17.18;93.41
67275;DHT22;55463;52.324;5.122;2023-08-20T01:32:38;17.14;93.76
67275;DHT22;55463;52.324;5.122;2023-08-20T01:35:12;17.14;93.71
67275;DHT22;55463;52.324;5.122;2023-08-20T01:37:39;17.10;93.41
67275;DHT22;55463;52.324;5.122;2023-08-20T01:40:05;17.07;93.37
67275;DHT22;55463;52.324;5.122;2023-08-20T01:42:32;17.00;93.44
67275;DHT22;55463;52.324;5.122;2023-08-20T01:44:57;17.04;93.82
67275;DHT22;55463;52.324;5.122;2023-08-20T01:47:23;17.01;93.65
67275;DHT22;55463;52.324;5.122;2023-08-20T01:49:48;17.06;93.71
67275;DHT22;55463;52.324;5.122;2023-08-20T01:52:14;17.03;93.48
67275;DHT22;55463;52.324;5.122;2023-08-20T01:54:39;17.03;93.11
67275;DHT22;55463;52.324;5.122;2023-08-20T01:57:04;17.01;93.78
67275;DHT22;55463;52.324;5.122;2023-08-20T01:59:30;17.00;93.78
67275;DHT22;55463;52.324;5.122;2023-08-20T02:01:55;16.99;93.13
67275;DHT22;55463;52.324;5.122;2023-08-20T02:04:20;16.94;92.99
67275;DHT22;55463;52.324;5.122;2023-08-20T02:06:46;16.93;93.48
67275;DHT22;55463;52.324;5.122;2023-08-20T02:09:11;16.90;93.34
67275;DHT22;55463;52.324;5.122;2023-08-20T02:11:39;16.88;93.64
67275;DHT22;55463;52.324;5.122;2023-08-20T02:14:04;16.84;94.49
67275;DHT22;55463;52.324;5.122;2023-08-20T02:16:30;16.85;94.17
67275;DHT22;55463;52.324;5.122;2023-08-20T02:18:55;16.81;93.50
67275;DHT22;55463;52.324;5.122;2023-08-20T02:21:20;16.73;93.83
67275;DHT22;55463;52.324;5.122;2023-08-20T02:23:46;16.72;93.63
67275;DHT22;55463;52.324;5.122;2023-08-20T02:26:11;16.69;93.85
67275;DHT22;55463;52.324;5.122;2023-08-20T02:28:37;16.67;93.83
67275;DHT22;55463;52.324;5.122;2023-08-20T02:31:05;16.63;93.80
67275;DHT22;55463;52.324;5.122;2023-08-20T02:33:30;16.65;93.98
67275;DHT22;55463;52.324;5.122;2023-08-20T02:36:01;16.63;95.14
67275;DHT22;55463;52.324;5.122;2023-08-20T02:38:27;16.65;96.13
67275;DHT22;55463;52.324;5.122;2023-08-20T02:40:53;16.63;95.41
67275;DHT22;55463;52.324;5.122;2023-08-20T02:43:18;16.63;94.47
67275;DHT22;55463;52.324;5.122;2023-08-20T02:45:43;16.57;94.63
67275;DHT22;55463;52.324;5.122;2023-08-20T02:48:09;16.59;94.76
67275;DHT22;55463;52.324;5.122;2023-08-20T02:50:35;16.51;94.70
67275;DHT22;55463;52.324;5.122;2023-08-20T02:53:00;16.53;94.70
67275;DHT22;55463;52.324;5.122;2023-08-20T02:55:26;16.51;94.61
67275;DHT22;55463;52.324;5.122;2023-08-20T02:57:51;16.49;94.46
67275;DHT22;55463;52.324;5.122;2023-08-20T03:00:17;16.45;94.07
67275;DHT22;55463;52.324;5.122;2023-08-20T03:02:42;16.42;94.00
67275;DHT22;55463;52.324;5.122;2023-08-20T03:05:10;16.41;95.39
67275;DHT22;55463;52.324;5.122;2023-08-20T03:07:35;16.42;94.28
67275;DHT22;55463;52.324;5.122;2023-08-20T03:10:01;16.35;94.18
67275;DHT22;55463;52.324;5.122;2023-08-20T03:12:28;16.35;94.40
67275;DHT22;55463;52.324;5.122;2023-08-20T03:14:53;16.32;94.67
67275;DHT22;55463;52.324;5.122;2023-08-20T03:17:19;16.31;94.91
67275;DHT22;55463;52.324;5.122;2023-08-20T03:19:58;16.33;94.73
67275;DHT22;55463;52.324;5.122;2023-08-20T03:22:25;16.31;95.08
67275;DHT22;55463;52.324;5.122;2023-08-20T03:24:50;16.36;96.08
67275;DHT22;55463;52.324;5.122;2023-08-20T03:27:16;16.38;96.03
67275;DHT22;55463;52.324;5.122;2023-08-20T03:29:42;16.45;96.15
67275;DHT22;55463;52.324;5.122;2023-08-20T03:32:08;16.49;96.22
67275;DHT22;55463;52.324;5.122;2023-08-20T03:34:33;16.51;95.82
67275;DHT22;55463;52.324;5.122;2023-08-20T03:36:58;16.53;95.82
67275;DHT22;55463;52.324;5.122;2023-08-20T03:39:24;16.53;96.20
67275;DHT22;55463;52.324;5.122;2023-08-20T03:41:50;16.53;95.82
67275;DHT22;55463;52.324;5.122;2023-08-20T03:44:15;16.57;96.50
67275;DHT22;55463;52.324;5.122;2023-08-20T03:46:41;16.59;96.34
67275;DHT22;55463;52.324;5.122;2023-08-20T03:49:06;16.59;96.23
67275;DHT22;55463;52.324;5.122;2023-08-20T03:51:32;16.60;95.76
67275;DHT22;55463;52.324;5.122;2023-08-20T03:53:57;16.55;95.05
67275;DHT22;55463;52.324;5.122;2023-08-20T03:56:22;16.49;95.43
67275;DHT22;55463;52.324;5.122;2023-08-20T03:58:48;16.48;94.72
67275;DHT22;55463;52.324;5.122;2023-08-20T04:01:13;16.44;94.43
67275;DHT22;55463;52.324;5.122;2023-08-20T04:03:38;16.38;94.27
67275;DHT22;55463;52.324;5.122;2023-08-20T04:06:04;16.35;94.06
67275;DHT22;55463;52.324;5.122;2023-08-20T04:08:29;16.29;94.50
67275;DHT22;55463;52.324;5.122;2023-08-20T04:10:54;16.24;94.21
67275;DHT22;55463;52.324;5.122;2023-08-20T04:13:20;16.26;95.18
67275;DHT22;55463;52.324;5.122;2023-08-20T04:15:46;16.22;94.90
67275;DHT22;55463;52.324;5.122;2023-08-20T04:18:11;16.17;95.84
67275;DHT22;55463;52.324;5.122;2023-08-20T04:20:36;16.24;95.26
67275;DHT22;55463;52.324;5.122;2023-08-20T04:23:02;16.18;95.03
67275;DHT22;55463;52.324;5.122;2023-08-20T04:25:27;16.12;94.13
67275;DHT22;55463;52.324;5.122;2023-08-20T04:27:53;16.07;94.01
67275;DHT22;55463;52.324;5.122;2023-08-20T04:30:18;16.04;93.87
67275;DHT22;55463;52.324;5.122;2023-08-20T04:32:44;16.00;93.78
67275;DHT22;55463;52.324;5.122;2023-08-20T04:35:09;15.96;93.64
67275;DHT22;55463;52.324;5.122;2023-08-20T04:37:35;15.94;93.47
67275;DHT22;55463;52.324;5.122;2023-08-20T04:40:01;15.89;93.76
67275;DHT22;55463;52.324;5.122;2023-08-20T04:42:27;15.87;94.08
67275;DHT22;55463;52.324;5.122;2023-08-20T04:44:52;15.86;94.30
67275;DHT22;55463;52.324;5.122;2023-08-20T04:47:18;15.84;94.27
67275;DHT22;55463;52.324;5.122;2023-08-20T04:49:43;15.82;93.88
67275;DHT22;55463;52.324;5.122;2023-08-20T04:52:09;15.80;94.85
67275;DHT22;55463;52.324;5.122;2023-08-20T04:54:34;15.84;95.36
67275;DHT22;55463;52.324;5.122;2023-08-20T04:56:59;15.86;95.03
67275;DHT22;55463;52.324;5.122;2023-08-20T04:59:25;15.83;94.91
67275;DHT22;55463;52.324;5.122;2023-08-20T05:01:51;15.84;95.00
67275;DHT22;55463;52.324;5.122;2023-08-20T05:04:16;15.83;94.72
67275;DHT22;55463;52.324;5.122;2023-08-20T05:06:42;15.80;94.43
67275;DHT22;55463;52.324;5.122;2023-08-20T05:09:07;15.80;95.28
67275;DHT22;55463;52.324;5.122;2023-08-20T05:11:33;15.83;95.67
67275;DHT22;55463;52.324;5.122;2023-08-20T05:13:58;15.83;95.52
67275;DHT22;55463;52.324;5.122;2023-08-20T05:16:24;15.84;95.57
67275;DHT22;55463;52.324;5.122;2023-08-20T05:18:49;15.87;95.75
67275;DHT22;55463;52.324;5.122;2023-08-20T05:21:14;15.86;96.05
67275;DHT22;55463;52.324;5.122;2023-08-20T05:23:40;15.89;96.98
67275;DHT22;55463;52.324;5.122;2023-08-20T05:26:06;15.93;96.88
67275;DHT22;55463;52.324;5.122;2023-08-20T05:28:32;15.94;96.59
67275;DHT22;55463;52.324;5.122;2023-08-20T05:30:58;15.98;96.83
67275;DHT22;55463;52.324;5.122;2023-08-20T05:33:26;15.98;97.70
67275;DHT22;55463;52.324;5.122;2023-08-20T05:35:52;16.01;97.97
67275;DHT22;55463;52.324;5.122;2023-08-20T05:38:17;16.05;98.29
67275;DHT22;55463;52.324;5.122;2023-08-20T05:40:43;16.10;98.73
67275;DHT22;55463;52.324;5.122;2023-08-20T05:43:09;16.17;99.19
67275;DHT22;55463;52.324;5.122;2023-08-20T05:45:34;16.22;99.35
67275;DHT22;55463;52.324;5.122;2023-08-20T05:48:00;16.39;99.99
67275;DHT22;55463;52.324;5.122;2023-08-20T05:50:25;16.41;99.31
67275;DHT22;55463;52.324;5.122;2023-08-20T05:52:52;16.48;99.20
67275;DHT22;55463;52.324;5.122;2023-08-20T05:55:17;16.53;99.50
67275;DHT22;55463;52.324;5.122;2023-08-20T05:57:42;16.57;99.26
67275;DHT22;55463;52.324;5.122;2023-08-20T06:00:09;16.62;99.19
67275;DHT22;55463;52.324;5.122;2023-08-20T06:02:35;16.70;99.40
67275;DHT22;55463;52.324;5.122;2023-08-20T06:05:01;16.76;99.61
67275;DHT22;55463;52.324;5.122;2023-08-20T06:07:27;16.87;99.63
67275;DHT22;55463;52.324;5.122;2023-08-20T06:09:53;16.93;99.59
67275;DHT22;55463;52.324;5.122;2023-08-20T06:12:18;16.99;99.35
67275;DHT22;55463;52.324;5.122;2023-08-20T06:14:43;17.03;99.58
67275;DHT22;55463;52.324;5.122;2023-08-20T06:17:09;17.07;99.04
67275;DHT22;55463;52.324;5.122;2023-08-20T06:19:34;17.11;99.00
67275;DHT22;55463;52.324;5.122;2023-08-20T06:21:59;17.15;99.13
67275;DHT22;55463;52.324;5.122;2023-08-20T06:24:25;17.27;99.58
67275;DHT22;55463;52.324;5.122;2023-08-20T06:26:51;17.29;99.50
67275;DHT22;55463;52.324;5.122;2023-08-20T06:29:17;17.38;99.31
67275;DHT22;55463;52.324;5.122;2023-08-20T06:31:43;17.46;99.32
67275;DHT22;55463;52.324;5.122;2023-08-20T06:34:08;17.49;99.11
67275;DHT22;55463;52.324;5.122;2023-08-20T06:36:33;17.61;99.81
67275;DHT22;55463;52.324;5.122;2023-08-20T06:38:59;17.73;99.66
67275;DHT22;55463;52.324;5.122;2023-08-20T06:41:24;18.00;99.77
67275;DHT22;55463;52.324;5.122;2023-08-20T06:43:50;18.42;99.73
67275;DHT22;55463;52.324;5.122;2023-08-20T06:46:15;19.12;99.14
67275;DHT22;55463;52.324;5.122;2023-08-20T06:48:40;19.72;98.26
67275;DHT22;55463;52.324;5.122;2023-08-20T06:51:13;20.34;97.36
67275;DHT22;55463;52.324;5.122;2023-08-20T06:53:39;20.97;97.26
67275;DHT22;55463;52.324;5.122;2023-08-20T06:56:06;21.53;93.19
67275;DHT22;55463;52.324;5.122;2023-08-20T06:58:32;22.15;93.23
67275;DHT22;55463;52.324;5.122;2023-08-20T07:00:57;22.56;91.24
67275;DHT22;55463;52.324;5.122;2023-08-20T07:03:32;23.14;89.88
67275;DHT22;55463;52.324;5.122;2023-08-20T07:05:58;23.11;84.80
67275;DHT22;55463;52.324;5.122;2023-08-20T07:08:24;23.39;86.84
67275;DHT22;55463;52.324;5.122;2023-08-20T07:10:50;23.70;84.80
67275;DHT22;55463;52.324;5.122;2023-08-20T07:13:15;23.82;83.16
67275;DHT22;55463;52.324;5.122;2023-08-20T07:15:40;23.92;83.08
67275;DHT22;55463;52.324;5.122;2023-08-20T07:18:06;24.01;81.15
67275;DHT22;55463;52.324;5.122;2023-08-20T07:20:31;24.65;81.47
67275;DHT22;55463;52.324;5.122;2023-08-20T07:22:57;24.79;79.41
67275;DHT22;55463;52.324;5.122;2023-08-20T07:25:22;25.02;79.45
67275;DHT22;55463;52.324;5.122;2023-08-20T07:27:47;25.24;79.62
67275;DHT22;55463;52.324;5.122;2023-08-20T07:30:13;25.34;77.30
67275;DHT22;55463;52.324;5.122;2023-08-20T07:32:39;25.61;77.58
67275;DHT22;55463;52.324;5.122;2023-08-20T07:35:04;25.80;77.15
67275;DHT22;55463;52.324;5.122;2023-08-20T07:37:30;25.65;76.86
67275;DHT22;55463;52.324;5.122;2023-08-20T07:39:55;25.83;76.59
67275;DHT22;55463;52.324;5.122;2023-08-20T07:42:21;26.12;75.57
67275;DHT22;55463;52.324;5.122;2023-08-20T07:44:46;26.30;74.98
67275;DHT22;55463;52.324;5.122;2023-08-20T07:47:11;26.44;74.52
67275;DHT22;55463;52.324;5.122;2023-08-20T07:49:37;26.59;74.71
67275;DHT22;55463;52.324;5.122;2023-08-20T07:52:03;26.53;74.04
67275;DHT22;55463;52.324;5.122;2023-08-20T07:54:28;26.83;73.73
67275;DHT22;55463;52.324;5.122;2023-08-20T07:56:54;26.49;72.04
67275;DHT22;55463;52.324;5.122;2023-08-20T07:59:19;26.69;73.92
67275;DHT22;55463;52.324;5.122;2023-08-20T08:01:44;26.34;73.43
67275;DHT22;55463;52.324;5.122;2023-08-20T08:04:10;26.76;72.84
67275;DHT22;55463;52.324;5.122;2023-08-20T08:06:35;26.86;72.74
67275;DHT22;55463;52.324;5.122;2023-08-20T08:09:30;27.82;72.65
67275;DHT22;55463;52.324;5.122;2023-08-20T08:11:56;27.83;70.89
67275;DHT22;55463;52.324;5.122;2023-08-20T08:14:22;27.75;70.73
67275;DHT22;55463;52.324;5.122;2023-08-20T08:16:48;27.83;69.61
67275;DHT22;55463;52.324;5.122;2023-08-20T08:19:14;28.18;70.14
67275;DHT22;55463;52.324;5.122;2023-08-20T08:21:41;28.28;69.47
67275;DHT22;55463;52.324;5.122;2023-08-20T08:24:08;28.17;68.35
67275;DHT22;55463;52.324;5.122;2023-08-20T08:26:34;28.37;69.09
67275;DHT22;55463;52.324;5.122;2023-08-20T08:29:00;27.83;67.42
67275;DHT22;55463;52.324;5.122;2023-08-20T08:31:26;28.59;68.70
67275;DHT22;55463;52.324;5.122;2023-08-20T08:33:51;28.78;66.63
67275;DHT22;55463;52.324;5.122;2023-08-20T08:36:16;28.98;67.18
67275;DHT22;55463;52.324;5.122;2023-08-20T08:38:43;28.66;66.32
67275;DHT22;55463;52.324;5.122;2023-08-20T08:41:11;29.06;67.18
67275;DHT22;55463;52.324;5.122;2023-08-20T08:43:38;29.44;66.56
67275;DHT22;55463;52.324;5.122;2023-08-20T08:46:07;29.58;65.63
67275;DHT22;55463;52.324;5.122;2023-08-20T08:48:34;30.05;65.78
67275;DHT22;55463;52.324;5.122;2023-08-20T08:51:01;30.41;65.05
67275;DHT22;55463;52.324;5.122;2023-08-20T08:53:26;30.81;64.10
67275;DHT22;55463;52.324;5.122;2023-08-20T08:55:51;30.83;62.44
67275;DHT22;55463;52.324;5.122;2023-08-20T08:58:17;30.21;60.35
67275;DHT22;55463;52.324;5.122;2023-08-20T09:00:42;29.99;61.36
67275;DHT22;55463;52.324;5.122;2023-08-20T09:03:08;29.75;62.84
67275;DHT22;55463;52.324;5.122;2023-08-20T09:05:54;29.75;61.02
67275;DHT22;55463;52.324;5.122;2023-08-20T09:08:27;30.02;61.66
67275;DHT22;55463;52.324;5.122;2023-08-20T09:10:57;29.66;61.11
67275;DHT22;55463;52.324;5.122;2023-08-20T09:13:42;29.90;62.70
67275;DHT22;55463;52.324;5.122;2023-08-20T09:16:11;29.98;62.50
67275;DHT22;55463;52.324;5.122;2023-08-20T09:18:44;30.55;62.51
67275;DHT22;55463;52.324;5.122;2023-08-20T09:21:11;30.27;62.35
67275;DHT22;55463;52.324;5.122;2023-08-20T09:23:37;30.53;62.59
67275;DHT22;55463;52.324;5.122;2023-08-20T09:26:04;29.55;61.01
67275;DHT22;55463;52.324;5.122;2023-08-20T09:28:40;29.28;63.01
67275;DHT22;55463;52.324;5.122;2023-08-20T09:31:06;29.50;62.84
67275;DHT22;55463;52.324;5.122;2023-08-20T09:33:31;30.53;61.97
67275;DHT22;55463;52.324;5.122;2023-08-20T09:35:57;30.30;61.14
67275;DHT22;55463;52.324;5.122;2023-08-20T09:38:23;31.35;61.74
67275;DHT22;55463;52.324;5.122;2023-08-20T09:40:51;31.24;58.80
67275;DHT22;55463;52.324;5.122;2023-08-20T09:43:17;31.22;58.46
67275;DHT22;55463;52.324;5.122;2023-08-20T09:45:43;30.54;59.75
67275;DHT22;55463;52.324;5.122;2023-08-20T09:48:12;31.00;61.76
67275;DHT22;55463;52.324;5.122;2023-08-20T09:50:40;31.78;59.64
67275;DHT22;55463;52.324;5.122;2023-08-20T09:53:34;31.40;57.85
67275;DHT22;55463;52.324;5.122;2023-08-20T09:56:15;31.06;58.53
67275;DHT22;55463;52.324;5.122;2023-08-20T09:58:44;31.26;58.69
67275;DHT22;55463;52.324;5.122;2023-08-20T10:01:10;31.75;58.70
67275;DHT22;55463;52.324;5.122;2023-08-20T10:03:36;32.98;59.35
67275;DHT22;55463;52.324;5.122;2023-08-20T10:06:03;33.45;57.73
67275;DHT22;55463;52.324;5.122;2023-08-20T10:08:29;33.16;56.17
67275;DHT22;55463;52.324;5.122;2023-08-20T10:10:54;33.02;55.26
67275;DHT22;55463;52.324;5.122;2023-08-20T10:13:19;32.39;53.71
67275;DHT22;55463;52.324;5.122;2023-08-20T10:15:45;31.95;56.45
67275;DHT22;55463;52.324;5.122;2023-08-20T10:18:11;32.53;56.34
67275;DHT22;55463;52.324;5.122;2023-08-20T10:20:38;32.53;53.78
67275;DHT22;55463;52.324;5.122;2023-08-20T10:23:04;32.22;54.35
67275;DHT22;55463;52.324;5.122;2023-08-20T10:25:30;32.58;54.97
67275;DHT22;55463;52.324;5.122;2023-08-20T10:28:11;32.95;54.54
67275;DHT22;55463;52.324;5.122;2023-08-20T10:30:38;32.70;54.57
67275;DHT22;55463;52.324;5.122;2023-08-20T10:33:03;32.91;54.70
67275;DHT22;55463;52.324;5.122;2023-08-20T10:35:47;32.98;54.67
67275;DHT22;55463;52.324;5.122;2023-08-20T10:38:14;32.81;54.06
67275;DHT22;55463;52.324;5.122;2023-08-20T10:40:58;33.36;54.96
67275;DHT22;55463;52.324;5.122;2023-08-20T10:43:39;34.06;54.93
67275;DHT22;55463;52.324;5.122;2023-08-20T10:46:06;34.66;53.54
67275;DHT22;55463;52.324;5.122;2023-08-20T10:48:32;34.64;52.62
67275;DHT22;55463;52.324;5.122;2023-08-20T10:51:12;33.77;51.62
67275;DHT22;55463;52.324;5.122;2023-08-20T10:53:39;33.94;53.38
67275;DHT22;55463;52.324;5.122;2023-08-20T10:58:33;34.54;52.29
67275;DHT22;55463;52.324;5.122;2023-08-20T11:01:19;34.46;51.45
67275;DHT22;55463;52.324;5.122;2023-08-20T11:03:45;34.56;54.77
67275;DHT22;55463;52.324;5.122;2023-08-20T11:06:11;34.79;51.83
67275;DHT22;55463;52.324;5.122;2023-08-20T11:08:37;33.85;50.66
67275;DHT22;55463;52.324;5.122;2023-08-20T11:11:03;33.75;50.71
67275;DHT22;55463;52.324;5.122;2023-08-20T11:13:31;34.16;52.37
67275;DHT22;55463;52.324;5.122;2023-08-20T11:15:59;34.16;51.49
67275;DHT22;55463;52.324;5.122;2023-08-20T11:18:24;34.27;51.17
67275;DHT22;55463;52.324;5.122;2023-08-20T11:20:50;34.56;51.86
67275;DHT22;55463;52.324;5.122;2023-08-20T11:23:16;34.70;51.91
67275;DHT22;55463;52.324;5.122;2023-08-20T11:25:43;33.77;50.62
67275;DHT22;55463;52.324;5.122;2023-08-20T11:28:09;33.58;51.00
67275;DHT22;55463;52.324;5.122;2023-08-20T11:30:34;33.40;50.25
67275;DHT22;55463;52.324;5.122;2023-08-20T11:33:00;33.43;51.54
67275;DHT22;55463;52.324;5.122;2023-08-20T11:35:25;32.94;49.49
67275;DHT22;55463;52.324;5.122;2023-08-20T11:37:52;33.22;51.89
67275;DHT22;55463;52.324;5.122;2023-08-20T11:40:20;33.03;50.95
67275;DHT22;55463;52.324;5.122;2023-08-20T11:42:46;33.12;51.64
67275;DHT22;55463;52.324;5.122;2023-08-20T11:45:11;33.54;50.75
67275;DHT22;55463;52.324;5.122;2023-08-20T11:47:41;33.64;50.27
67275;DHT22;55463;52.324;5.122;2023-08-20T11:50:07;33.12;46.87
67275;DHT22;55463;52.324;5.122;2023-08-20T11:52:34;33.50;51.16
67275;DHT22;55463;52.324;5.122;2023-08-20T11:55:00;32.84;48.44
67275;DHT22;55463;52.324;5.122;2023-08-20T11:57:26;32.63;49.84
67275;DHT22;55463;52.324;5.122;2023-08-20T11:59:53;33.18;53.14
67275;DHT22;55463;52.324;5.122;2023-08-20T12:02:27;33.03;52.94
67275;DHT22;55463;52.324;5.122;2023-08-20T12:04:56;33.27;50.02
67275;DHT22;55463;52.324;5.122;2023-08-20T12:07:25;33.15;49.06
67275;DHT22;55463;52.324;5.122;2023-08-20T12:09:55;32.91;49.80
67275;DHT22;55463;52.324;5.122;2023-08-20T12:12:21;32.58;49.38
67275;DHT22;55463;52.324;5.122;2023-08-20T12:14:47;32.58;49.64
67275;DHT22;55463;52.324;5.122;2023-08-20T12:17:12;33.09;51.50
67275;DHT22;55463;52.324;5.122;2023-08-20T12:19:41;32.88;51.73
67275;DHT22;55463;52.324;5.122;2023-08-20T12:22:07;33.19;51.44
67275;DHT22;55463;52.324;5.122;2023-08-20T12:24:33;33.36;52.40
67275;DHT22;55463;52.324;5.122;2023-08-20T12:26:59;33.19;50.98
67275;DHT22;55463;52.324;5.122;2023-08-20T12:29:24;32.98;48.91
67275;DHT22;55463;52.324;5.122;2023-08-20T12:31:49;33.29;51.47
67275;DHT22;55463;52.324;5.122;2023-08-20T12:34:15;33.09;50.72
67275;DHT22;55463;52.324;5.122;2023-08-20T12:36:40;33.11;50.81
67275;DHT22;55463;52.324;5.122;2023-08-20T12:39:05;33.18;51.33
67275;DHT22;55463;52.324;5.122;2023-08-20T12:41:31;33.49;52.20
67275;DHT22;55463;52.324;5.122;2023-08-20T12:43:57;33.43;49.11
67275;DHT22;55463;52.324;5.122;2023-08-20T12:46:23;33.22;50.43
67275;DHT22;55463;52.324;5.122;2023-08-20T12:48:48;33.29;51.33
67275;DHT22;55463;52.324;5.122;2023-08-20T12:51:14;33.73;52.14
67275;DHT22;55463;52.324;5.122;2023-08-20T12:53:42;33.20;47.81
67275;DHT22;55463;52.324;5.122;2023-08-20T12:56:08;32.65;49.40
67275;DHT22;55463;52.324;5.122;2023-08-20T12:58:33;32.75;50.92
67275;DHT22;55463;52.324;5.122;2023-08-20T13:00:58;32.13;49.32
67275;DHT22;55463;52.324;5.122;2023-08-20T13:03:24;32.50;51.45
67275;DHT22;55463;52.324;5.122;2023-08-20T13:05:50;32.57;50.88
67275;DHT22;55463;52.324;5.122;2023-08-20T13:08:16;32.39;52.21
67275;DHT22;55463;52.324;5.122;2023-08-20T13:10:41;32.29;51.96
67275;DHT22;55463;52.324;5.122;2023-08-20T13:13:10;32.12;53.84
67275;DHT22;55463;52.324;5.122;2023-08-20T13:15:36;31.72;50.91
67275;DHT22;55463;52.324;5.122;2023-08-20T13:18:02;31.27;53.93
67275;DHT22;55463;52.324;5.122;2023-08-20T13:20:28;30.72;52.66
67275;DHT22;55463;52.324;5.122;2023-08-20T13:22:53;30.76;53.76
67275;DHT22;55463;52.324;5.122;2023-08-20T13:25:19;30.82;53.88
67275;DHT22;55463;52.324;5.122;2023-08-20T13:27:46;30.95;54.42
67275;DHT22;55463;52.324;5.122;2023-08-20T13:30:12;30.68;54.82
67275;DHT22;55463;52.324;5.122;2023-08-20T13:32:38;31.04;54.72
67275;DHT22;55463;52.324;5.122;2023-08-20T13:35:04;31.12;51.93
67275;DHT22;55463;52.324;5.122;2023-08-20T13:37:30;31.29;52.10
67275;DHT22;55463;52.324;5.122;2023-08-20T13:39:59;31.45;52.60
67275;DHT22;55463;52.324;5.122;2023-08-20T13:42:24;31.74;52.11
67275;DHT22;55463;52.324;5.122;2023-08-20T13:44:50;31.48;51.41
67275;DHT22;55463;52.324;5.122;2023-08-20T13:47:15;31.85;52.90
67275;DHT22;55463;52.324;5.122;2023-08-20T13:49:41;32.06;51.61
67275;DHT22;55463;52.324;5.122;2023-08-20T13:52:06;31.61;50.65
67275;DHT22;55463;52.324;5.122;2023-08-20T13:54:32;31.81;52.08
67275;DHT22;55463;52.324;5.122;2023-08-20T13:56:57;31.65;51.98
67275;DHT22;55463;52.324;5.122;2023-08-20T13:59:23;31.22;51.41
67275;DHT22;55463;52.324;5.122;2023-08-20T14:01:48;31.26;53.21
67275;DHT22;55463;52.324;5.122;2023-08-20T14:04:16;31.50;53.25
67275;DHT22;55463;52.324;5.122;2023-08-20T14:06:41;31.68;53.02
67275;DHT22;55463;52.324;5.122;2023-08-20T14:09:07;31.72;53.34
67275;DHT22;55463;52.324;5.122;2023-08-20T14:11:32;31.78;54.45
67275;DHT22;55463;52.324;5.122;2023-08-20T14:13:57;31.99;55.40
67275;DHT22;55463;52.324;5.122;2023-08-20T14:16:23;31.51;52.25
67275;DHT22;55463;52.324;5.122;2023-08-20T14:18:48;31.31;53.54
67275;DHT22;55463;52.324;5.122;2023-08-20T14:21:14;31.52;54.04
67275;DHT22;55463;52.324;5.122;2023-08-20T14:23:39;31.16;52.75
67275;DHT22;55463;52.324;5.122;2023-08-20T14:26:06;31.23;51.94
67275;DHT22;55463;52.324;5.122;2023-08-20T14:28:32;31.47;52.82
67275;DHT22;55463;52.324;5.122;2023-08-20T14:31:01;31.51;53.05
67275;DHT22;55463;52.324;5.122;2023-08-20T14:33:29;31.51;53.63
67275;DHT22;55463;52.324;5.122;2023-08-20T14:35:55;31.45;53.18
67275;DHT22;55463;52.324;5.122;2023-08-20T14:38:20;31.26;52.32
67275;DHT22;55463;52.324;5.122;2023-08-20T14:40:46;31.12;51.89
67275;DHT22;55463;52.324;5.122;2023-08-20T14:43:12;31.13;53.09
67275;DHT22;55463;52.324;5.122;2023-08-20T14:45:37;30.99;52.93
67275;DHT22;55463;52.324;5.122;2023-08-20T14:48:03;31.20;53.89
67275;DHT22;55463;52.324;5.122;2023-08-20T14:50:29;31.27;54.10
67275;DHT22;55463;52.324;5.122;2023-08-20T14:52:54;30.93;52.28
67275;DHT22;55463;52.324;5.122;2023-08-20T14:55:20;30.78;51.98
67275;DHT22;55463;52.324;5.122;2023-08-20T14:57:46;30.99;53.85
67275;DHT22;55463;52.324;5.122;2023-08-20T15:00:14;30.89;53.79
67275;DHT22;55463;52.324;5.122;2023-08-20T15:02:44;30.36;53.17
67275;DHT22;55463;52.324;5.122;2023-08-20T15:05:10;30.43;54.60
67275;DHT22;55463;52.324;5.122;2023-08-20T15:07:36;30.60;55.62
67275;DHT22;55463;52.324;5.122;2023-08-20T15:10:03;30.65;54.71
67275;DHT22;55463;52.324;5.122;2023-08-20T15:12:28;30.38;53.79
67275;DHT22;55463;52.324;5.122;2023-08-20T15:14:54;30.27;53.99
67275;DHT22;55463;52.324;5.122;2023-08-20T15:17:19;30.23;54.18
67275;DHT22;55463;52.324;5.122;2023-08-20T15:19:45;30.26;54.16
67275;DHT22;55463;52.324;5.122;2023-08-20T15:22:13;30.34;54.54
67275;DHT22;55463;52.324;5.122;2023-08-20T15:24:38;30.21;52.74
67275;DHT22;55463;52.324;5.122;2023-08-20T15:27:04;30.26;54.29
67275;DHT22;55463;52.324;5.122;2023-08-20T15:29:29;30.31;54.89
67275;DHT22;55463;52.324;5.122;2023-08-20T15:31:55;30.44;56.03
67275;DHT22;55463;52.324;5.122;2023-08-20T15:34:20;30.44;53.67
67275;DHT22;55463;52.324;5.122;2023-08-20T15:36:45;30.45;55.25
67275;DHT22;55463;52.324;5.122;2023-08-20T15:39:13;30.24;54.61